createdAt,value
2019-04-28T00:01:11.939Z,99.90
2019-04-28T00:03:41.974Z,99.90
2019-04-28T00:06:11.026Z,99.90
2019-04-28T00:08:39.616Z,99.90
2019-04-28T00:11:08.271Z,99.90
2019-04-28T00:13:36.884Z,99.90
2019-04-28T00:16:07.177Z,99.90
2019-04-28T00:18:35.738Z,99.90
2019-04-28T00:21:06.559Z,99.90
2019-04-28T00:23:42.573Z,99.90
2019-04-28T00:26:12.772Z,99.90
2019-04-28T00:28:41.644Z,99.90
2019-04-28T00:31:11.302Z,99.90
2019-04-28T00:33:41.053Z,99.90
2019-04-28T00:36:11.558Z,99.90
2019-04-28T00:38:41.479Z,99.90
2019-04-28T00:41:11.005Z,99.90
2019-04-28T00:43:39.635Z,99.90
2019-04-28T00:46:11.011Z,99.90
2019-04-28T00:48:40.927Z,99.90
2019-04-28T00:51:11.510Z,99.90
2019-04-28T00:53:40.855Z,99.90
2019-04-28T00:56:09.480Z,99.90
2019-04-28T00:58:38.030Z,99.70
2019-04-28T01:01:08.231Z,99.50
2019-04-28T01:03:37.124Z,99.70
2019-04-28T01:06:05.831Z,99.60
2019-04-28T01:08:34.447Z,99.70
2019-04-28T01:11:03.020Z,99.50
2019-04-28T01:13:31.981Z,99.70
2019-04-28T01:16:09.436Z,99.50
2019-04-28T01:18:45.359Z,99.70
2019-04-28T01:21:14.220Z,99.40
2019-04-28T01:23:42.963Z,99.40
2019-04-28T01:26:11.515Z,99.50
2019-04-28T01:28:40.091Z,99.30
2019-04-28T01:31:13.316Z,99.50
2019-04-28T01:34:00.108Z,99.50
2019-04-28T01:36:30.160Z,99.60
2019-04-28T01:38:59.974Z,99.70
2019-04-28T01:41:29.675Z,99.40
2019-04-28T01:44:00.086Z,99.40
2019-04-28T01:46:29.823Z,99.30
2019-04-28T01:48:59.909Z,99.40
2019-04-28T01:51:30.411Z,99.40
2019-04-28T01:54:00.180Z,99.40
2019-04-28T01:56:30.432Z,99.60
2019-04-28T01:59:00.268Z,99.30
2019-04-28T02:01:30.150Z,99.00
2019-04-28T02:04:00.219Z,99.10
2019-04-28T02:06:29.969Z,99.00
2019-04-28T02:09:00.711Z,98.90
2019-04-28T02:11:29.644Z,98.80
2019-04-28T02:13:59.742Z,98.80
2019-04-28T02:16:29.660Z,98.90
2019-04-28T02:18:59.725Z,98.80
2019-04-28T02:21:35.850Z,98.50
2019-04-28T02:24:22.297Z,98.40
2019-04-28T02:26:52.707Z,98.30
2019-04-28T02:29:21.133Z,98.60
2019-04-28T02:31:51.079Z,99.00
2019-04-28T02:34:21.207Z,98.50
2019-04-28T02:36:53.493Z,98.50
2019-04-28T02:39:20.789Z,98.40
2019-04-28T02:41:51.102Z,98.30
2019-04-28T02:44:23.072Z,98.50
2019-04-28T02:46:50.865Z,98.40
2019-04-28T02:49:32.860Z,98.40
2019-04-28T02:52:03.303Z,98.30
2019-04-28T02:54:31.887Z,98.60
2019-04-28T02:57:01.247Z,98.60
2019-04-28T02:59:30.522Z,98.60
2019-04-28T03:02:00.714Z,98.80
2019-04-28T03:04:30.793Z,98.80
2019-04-28T03:07:01.392Z,98.90
2019-04-28T03:09:30.585Z,98.80
2019-04-28T03:12:01.536Z,98.90
2019-04-28T03:14:30.542Z,98.90
2019-04-28T03:17:00.878Z,98.90
2019-04-28T03:19:33.776Z,98.80
2019-04-28T03:22:01.377Z,98.50
2019-04-28T03:24:31.592Z,98.60
2019-04-28T03:27:10.681Z,98.90
2019-04-28T03:29:40.508Z,98.90
2019-04-28T03:32:30.314Z,98.90
2019-04-28T03:34:43.825Z,99.00
2019-04-28T03:37:12.960Z,99.30
2019-04-28T03:39:41.575Z,99.00
2019-04-28T03:42:11.723Z,99.10
2019-04-28T03:44:41.490Z,99.30
2019-04-28T03:47:10.721Z,99.40
2019-04-28T03:49:40.604Z,99.40
2019-04-28T03:52:10.770Z,99.80
2019-04-28T03:54:40.991Z,99.90
2019-04-28T03:57:11.379Z,99.90
2019-04-28T03:59:43.096Z,99.90
2019-04-28T04:02:11.216Z,99.90
2019-04-28T04:04:41.457Z,99.50
2019-04-28T04:07:11.124Z,99.10
2019-04-28T04:09:47.197Z,98.90
2019-04-28T04:12:33.749Z,98.50
2019-04-28T04:15:04.162Z,98.60
2019-04-28T04:17:34.362Z,98.70
2019-04-28T04:20:03.112Z,98.90
2019-04-28T04:22:31.675Z,98.70
2019-04-28T04:25:01.343Z,99.00
2019-04-28T04:27:30.939Z,99.10
2019-04-28T04:30:01.739Z,98.80
2019-04-28T04:32:30.948Z,98.80
2019-04-28T04:35:00.823Z,98.90
2019-04-28T04:37:30.809Z,98.40
2019-04-28T04:40:01.332Z,98.20
2019-04-28T04:42:30.652Z,98.00
2019-04-28T04:45:00.481Z,98.00
2019-04-28T04:47:32.468Z,97.70
2019-04-28T04:50:00.312Z,97.40
2019-04-28T04:52:30.405Z,97.10
2019-04-28T04:55:01.277Z,97.20
2019-04-28T04:57:32.399Z,97.20
2019-04-28T05:00:00.431Z,97.20
2019-04-28T05:02:33.084Z,98.20
2019-04-28T05:05:02.482Z,98.70
2019-04-28T05:07:31.045Z,99.30
2019-04-28T05:09:59.639Z,99.50
2019-04-28T05:12:28.198Z,99.90
2019-04-28T05:14:56.757Z,99.90
2019-04-28T05:17:25.299Z,99.90
2019-04-28T05:19:53.871Z,99.90
2019-04-28T05:22:24.051Z,99.90
2019-04-28T05:25:03.207Z,99.30
2019-04-28T05:27:32.518Z,99.40
2019-04-28T05:30:04.482Z,98.60
2019-04-28T05:32:42.527Z,98.50
2019-04-28T05:35:01.709Z,98.30
2019-04-28T05:37:30.323Z,97.60
2019-04-28T05:40:00.847Z,96.50
2019-04-28T05:42:30.241Z,96.00
2019-04-28T05:45:00.710Z,96.50
2019-04-28T05:47:30.547Z,96.80
2019-04-28T05:50:00.853Z,96.90
2019-04-28T05:52:47.032Z,97.10
2019-04-28T05:55:20.436Z,97.10
2019-04-28T05:57:53.561Z,96.70
2019-04-28T06:00:32.375Z,97.80
2019-04-28T06:03:02.651Z,97.30
2019-04-28T06:05:31.950Z,97.90
2019-04-28T06:08:14.112Z,96.00
2019-04-28T06:10:42.747Z,98.70
2019-04-28T06:13:11.609Z,98.70
2019-04-28T06:15:41.913Z,98.00
2019-04-28T06:18:10.608Z,97.10
2019-04-28T06:20:40.695Z,96.50
2019-04-28T06:23:09.883Z,95.80
2019-04-28T06:25:38.528Z,94.40
2019-04-28T06:28:07.103Z,93.10
2019-04-28T06:30:35.718Z,90.30
2019-04-28T06:33:08.036Z,87.80
2019-04-28T06:35:34.940Z,89.00
2019-04-28T06:38:03.560Z,86.90
2019-04-28T06:40:32.396Z,87.50
2019-04-28T06:43:00.952Z,86.80
2019-04-28T06:45:29.539Z,83.30
2019-04-28T06:47:58.220Z,83.40
2019-04-28T06:50:26.798Z,82.10
2019-04-28T06:52:55.363Z,79.60
2019-04-28T06:55:23.937Z,77.00
2019-04-28T06:57:52.500Z,73.50
2019-04-28T07:00:21.160Z,73.50
2019-04-28T07:02:49.715Z,69.20
2019-04-28T07:05:18.336Z,72.40
2019-04-28T07:07:48.501Z,71.30
2019-04-28T07:10:17.125Z,67.10
2019-04-28T07:12:45.712Z,62.80
2019-04-28T07:15:14.422Z,61.10
2019-04-28T07:17:43.063Z,56.90
2019-04-28T07:20:29.356Z,55.20
2019-04-28T07:22:57.922Z,52.00
2019-04-28T07:25:26.471Z,51.60
2019-04-28T07:27:55.073Z,54.40
2019-04-28T07:30:24.006Z,55.30
2019-04-28T07:32:52.573Z,57.90
2019-04-28T07:35:21.202Z,61.20
2019-04-28T07:37:49.833Z,65.20
2019-04-28T07:40:18.398Z,69.80
2019-04-28T07:42:46.959Z,72.00
2019-04-28T07:45:15.684Z,74.40
2019-04-28T07:47:44.249Z,77.90
2019-04-28T07:50:12.975Z,80.70
2019-04-28T07:52:45.865Z,82.80
2019-04-28T07:55:14.594Z,85.40
2019-04-28T07:57:43.139Z,86.50
2019-04-28T08:00:13.992Z,88.10
2019-04-28T08:02:42.708Z,88.80
2019-04-28T08:05:11.404Z,89.60
2019-04-28T08:07:39.968Z,89.30
2019-04-28T08:10:08.772Z,89.20
2019-04-28T08:12:37.365Z,89.40
2019-04-28T08:15:06.059Z,87.60
2019-04-28T08:17:34.804Z,87.90
2019-04-28T08:20:05.699Z,86.50
2019-04-28T08:22:34.447Z,85.20
2019-04-28T08:25:03.437Z,83.00
2019-04-28T08:27:32.004Z,81.90
2019-04-28T08:30:00.560Z,77.40
2019-04-28T08:32:30.836Z,75.60
2019-04-28T08:34:59.414Z,73.60
2019-04-28T08:37:28.045Z,68.30
2019-04-28T08:39:56.851Z,60.60
2019-04-28T08:42:25.407Z,59.40
2019-04-28T08:44:53.975Z,58.50
2019-04-28T08:47:22.593Z,58.40
2019-04-28T08:49:51.192Z,58.80
2019-04-28T08:52:19.892Z,56.50
2019-04-28T08:54:48.455Z,54.00
2019-04-28T08:57:17.101Z,52.50
2019-04-28T08:59:45.708Z,47.00
2019-04-28T09:02:14.261Z,43.20
2019-04-28T09:04:42.872Z,39.50
2019-04-28T09:07:11.439Z,39.30
2019-04-28T09:09:40.082Z,38.60
2019-04-28T09:12:08.841Z,40.70
2019-04-28T09:14:37.387Z,43.30
2019-04-28T09:17:06.258Z,45.10
2019-04-28T09:19:34.802Z,45.90
2019-04-28T09:22:06.468Z,46.70
2019-04-28T09:24:34.721Z,47.10
2019-04-28T09:27:03.468Z,47.10
2019-04-28T09:29:32.038Z,44.90
2019-04-28T09:32:00.710Z,40.00
2019-04-28T09:34:29.315Z,36.50
2019-04-28T09:36:57.956Z,31.60
2019-04-28T09:39:43.903Z,28.30
2019-04-28T09:42:32.126Z,29.90
2019-04-28T09:45:19.262Z,29.20
2019-04-28T09:47:47.860Z,30.40
2019-04-28T09:50:16.576Z,34.10
2019-04-28T09:52:45.161Z,37.40
2019-04-28T09:55:13.971Z,36.20
2019-04-28T09:57:42.532Z,39.20
2019-04-28T10:00:11.815Z,40.10
2019-04-28T10:02:40.369Z,42.30
2019-04-28T10:05:10.099Z,44.20
2019-04-28T10:07:38.654Z,45.10
2019-04-28T10:10:08.309Z,47.40
2019-04-28T10:12:36.858Z,50.30
2019-04-28T10:15:08.152Z,51.30
2019-04-28T10:17:36.795Z,53.90
2019-04-28T10:20:06.586Z,63.40
2019-04-28T10:22:36.111Z,68.00
2019-04-28T10:25:07.957Z,71.60
2019-04-28T10:27:36.684Z,76.00
2019-04-28T10:30:09.804Z,74.60
2019-04-28T10:32:38.653Z,73.40
2019-04-28T10:35:07.751Z,68.20
2019-04-28T10:37:36.333Z,67.30
2019-04-28T10:40:11.614Z,64.30
2019-04-28T10:42:40.256Z,65.10
2019-04-28T10:45:10.701Z,62.60
2019-04-28T10:47:39.392Z,60.50
2019-04-28T10:50:08.205Z,61.80
2019-04-28T10:52:36.765Z,64.80
2019-04-28T10:55:05.831Z,70.20
2019-04-28T10:57:34.512Z,76.00
2019-04-28T11:00:03.738Z,79.70
2019-04-28T11:02:32.493Z,80.00
2019-04-28T11:05:08.687Z,80.00
2019-04-28T11:07:33.104Z,80.60
2019-04-28T11:10:03.522Z,78.90
2019-04-28T11:12:32.285Z,79.30
2019-04-28T11:15:00.991Z,80.10
2019-04-28T11:17:29.745Z,83.10
2019-04-28T11:19:58.309Z,85.00
2019-04-28T11:22:26.894Z,87.20
2019-04-28T11:24:55.463Z,90.30
2019-04-28T11:27:24.438Z,91.00
2019-04-28T11:29:53.518Z,91.70
2019-04-28T11:32:22.078Z,92.80
2019-04-28T11:34:52.723Z,94.10
2019-04-28T11:37:21.366Z,93.50
2019-04-28T11:39:49.926Z,92.80
2019-04-28T11:42:18.579Z,92.70
2019-04-28T11:44:47.215Z,93.00
2019-04-28T11:47:17.480Z,92.30
2019-04-28T11:49:46.183Z,92.00
2019-04-28T11:52:14.686Z,91.30
2019-04-28T11:54:43.254Z,94.30
2019-04-28T11:57:11.820Z,92.60
2019-04-28T11:59:40.499Z,92.40
2019-04-28T12:02:09.085Z,90.20
2019-04-28T12:04:37.818Z,88.20
2019-04-28T12:07:06.714Z,89.20
2019-04-28T12:09:37.603Z,86.20
2019-04-28T12:12:08.708Z,87.30
2019-04-28T12:14:47.633Z,87.40
2019-04-28T12:17:35.012Z,86.20
2019-04-28T12:20:11.496Z,83.90
2019-04-28T12:22:40.182Z,82.40
2019-04-28T12:25:08.912Z,78.40
2019-04-28T12:27:37.535Z,75.80
2019-04-28T12:30:07.034Z,75.90
2019-04-28T12:32:35.621Z,74.00
2019-04-28T12:35:04.964Z,74.40
2019-04-28T12:37:33.536Z,71.30
2019-04-28T12:40:02.094Z,69.20
2019-04-28T12:42:30.666Z,67.70
2019-04-28T12:44:59.247Z,67.40
2019-04-28T12:47:27.887Z,68.80
2019-04-28T12:49:58.177Z,71.60
2019-04-28T12:52:26.779Z,72.70
2019-04-28T12:54:55.438Z,74.50
2019-04-28T12:57:24.065Z,74.40
2019-04-28T12:59:54.358Z,71.20
2019-04-28T13:02:27.500Z,68.70
2019-04-28T13:05:00.498Z,70.30
2019-04-28T13:07:29.312Z,73.40
2019-04-28T13:09:57.887Z,76.40
2019-04-28T13:12:26.431Z,75.40
2019-04-28T13:14:55.009Z,74.10
2019-04-28T13:17:23.645Z,70.30
2019-04-28T13:19:52.403Z,74.10
2019-04-28T13:22:21.060Z,71.20
2019-04-28T13:24:49.654Z,68.10
2019-04-28T13:27:18.196Z,68.00
2019-04-28T13:29:46.775Z,65.40
2019-04-28T13:32:15.335Z,69.10
2019-04-28T13:34:43.928Z,70.60
2019-04-28T13:37:12.566Z,68.60
2019-04-28T13:39:54.672Z,69.80
2019-04-28T13:42:23.226Z,68.50
2019-04-28T13:45:02.325Z,69.90
2019-04-28T13:47:30.943Z,73.50
2019-04-28T13:50:06.983Z,70.80
2019-04-28T13:52:35.535Z,72.80
2019-04-28T13:55:18.865Z,73.60
2019-04-28T13:57:47.406Z,74.30
2019-04-28T14:00:17.917Z,74.30
2019-04-28T14:02:48.134Z,70.60
2019-04-28T14:05:21.260Z,76.80
2019-04-28T14:07:49.835Z,73.10
2019-04-28T14:10:18.379Z,75.40
2019-04-28T14:12:47.124Z,77.00
2019-04-28T14:15:16.095Z,73.00
2019-04-28T14:17:44.771Z,66.70
2019-04-28T14:20:13.500Z,62.90
2019-04-28T14:22:42.023Z,67.40
2019-04-28T14:25:10.842Z,72.70
2019-04-28T14:27:39.853Z,70.10
2019-04-28T14:30:08.875Z,74.00
2019-04-28T14:32:37.704Z,70.10
2019-04-28T14:35:07.356Z,74.30
2019-04-28T14:37:36.036Z,72.40
2019-04-28T14:40:06.211Z,70.20
2019-04-28T14:42:34.932Z,71.00
2019-04-28T14:45:05.191Z,70.90
2019-04-28T14:47:33.859Z,68.60
2019-04-28T14:50:02.986Z,66.20
2019-04-28T14:52:31.636Z,64.20
2019-04-28T14:55:00.227Z,58.60
2019-04-28T14:57:28.783Z,62.30
2019-04-28T14:59:58.233Z,64.30
2019-04-28T15:02:28.433Z,64.20
2019-04-28T15:05:04.867Z,59.30
2019-04-28T15:07:46.803Z,58.90
2019-04-28T15:10:24.568Z,60.90
2019-04-28T15:12:53.309Z,60.20
2019-04-28T15:15:21.943Z,57.10
2019-04-28T15:17:50.529Z,58.70
2019-04-28T15:20:20.543Z,58.70
2019-04-28T15:22:49.116Z,62.30
2019-04-28T15:25:17.736Z,64.20
2019-04-28T15:27:46.498Z,64.30
2019-04-28T15:30:15.291Z,66.30
2019-04-28T15:32:43.889Z,68.00
2019-04-28T15:35:12.772Z,68.70
2019-04-28T15:37:41.787Z,67.80
2019-04-28T15:40:10.764Z,68.50
2019-04-28T15:42:39.346Z,68.40
2019-04-28T15:45:08.538Z,67.10
2019-04-28T15:47:37.165Z,63.30
2019-04-28T15:50:06.555Z,60.80
2019-04-28T15:52:35.111Z,59.50
2019-04-28T15:55:06.572Z,60.90
2019-04-28T15:57:35.123Z,60.60
2019-04-28T16:00:06.099Z,59.00
2019-04-28T16:02:34.801Z,56.30
2019-04-28T16:05:04.708Z,55.10
2019-04-28T16:07:33.264Z,55.50
2019-04-28T16:10:01.840Z,59.00
2019-04-28T16:12:30.379Z,58.40
2019-04-28T16:14:59.189Z,59.40
2019-04-28T16:17:27.735Z,59.10
2019-04-28T16:19:56.289Z,59.50
2019-04-28T16:22:24.924Z,57.00
2019-04-28T16:24:53.471Z,58.10
2019-04-28T16:27:22.051Z,58.90
2019-04-28T16:29:50.626Z,59.50
2019-04-28T16:32:19.295Z,60.40
2019-04-28T16:34:47.825Z,60.10
2019-04-28T16:37:16.389Z,62.30
2019-04-28T16:39:45.143Z,64.10
2019-04-28T16:42:13.659Z,64.00
2019-04-28T16:44:42.261Z,64.70
2019-04-28T16:47:10.824Z,66.50
2019-04-28T16:49:39.411Z,67.80
2019-04-28T16:52:08.054Z,69.60
2019-04-28T16:54:36.594Z,69.40
2019-04-28T16:57:21.679Z,68.70
2019-04-28T16:59:57.727Z,68.60
2019-04-28T17:02:28.068Z,68.50
2019-04-28T17:04:56.647Z,69.50
2019-04-28T17:07:25.199Z,69.40
2019-04-28T17:09:53.999Z,69.30
2019-04-28T17:12:22.593Z,69.50
2019-04-28T17:14:51.140Z,70.10
2019-04-28T17:17:19.719Z,72.10
2019-04-28T17:19:48.335Z,71.60
2019-04-28T17:22:17.324Z,72.10
2019-04-28T17:24:45.879Z,73.10
2019-04-28T17:27:14.454Z,75.00
2019-04-28T17:29:43.000Z,77.50
2019-04-28T17:32:11.664Z,77.90
2019-04-28T17:34:40.224Z,80.50
2019-04-28T17:37:10.076Z,79.50
2019-04-28T17:39:38.719Z,79.60
2019-04-28T17:42:08.407Z,79.30
2019-04-28T17:44:37.298Z,79.80
2019-04-28T17:47:05.887Z,80.30
2019-04-28T17:49:36.093Z,81.00
2019-04-28T17:52:05.783Z,82.00
2019-04-28T17:54:34.622Z,83.20
2019-04-28T17:57:03.795Z,83.30
2019-04-28T17:59:32.382Z,83.60
2019-04-28T18:02:19.168Z,83.30
2019-04-28T18:04:49.372Z,83.20
2019-04-28T18:07:19.617Z,84.00
2019-04-28T18:09:48.264Z,83.30
2019-04-28T18:12:17.059Z,83.80
2019-04-28T18:14:47.243Z,84.70
2019-04-28T18:17:33.707Z,87.10
2019-04-28T18:20:02.323Z,87.10
2019-04-28T18:22:31.076Z,86.90
2019-04-28T18:24:59.657Z,87.70
2019-04-28T18:27:28.210Z,87.90
2019-04-28T18:29:56.951Z,88.10
2019-04-28T18:32:30.508Z,89.20
2019-04-28T18:35:00.809Z,88.60
2019-04-28T18:37:46.776Z,89.60
2019-04-28T18:40:33.359Z,90.90
2019-04-28T18:43:06.531Z,90.90
2019-04-28T18:45:35.326Z,87.10
2019-04-28T18:48:04.091Z,87.00
2019-04-28T18:50:32.786Z,86.50
2019-04-28T18:53:02.668Z,84.30
2019-04-28T18:55:31.231Z,84.40
2019-04-28T18:57:59.776Z,83.70
2019-04-28T19:00:30.051Z,83.60
2019-04-28T19:02:58.621Z,83.50
2019-04-28T19:05:29.115Z,83.70
2019-04-28T19:08:05.095Z,85.80
2019-04-28T19:10:51.327Z,85.00
2019-04-28T19:13:21.644Z,84.50
2019-04-28T19:16:08.262Z,85.80
2019-04-28T19:18:38.575Z,85.50
2019-04-28T19:21:07.571Z,88.60
2019-04-28T19:23:36.142Z,89.00
2019-04-28T19:26:04.774Z,89.30
2019-04-28T19:28:33.318Z,89.70
2019-04-28T19:31:01.974Z,90.00
2019-04-28T19:33:30.521Z,89.70
2019-04-28T19:35:59.127Z,90.10
2019-04-28T19:38:27.671Z,90.10
2019-04-28T19:40:56.282Z,90.10
2019-04-28T19:43:24.872Z,90.20
2019-04-28T19:45:55.212Z,90.20
2019-04-28T19:48:23.726Z,90.00
2019-04-28T19:50:52.340Z,90.00
2019-04-28T19:53:20.904Z,90.70
2019-04-28T19:56:06.009Z,91.20
2019-04-28T19:58:36.405Z,91.20
2019-04-28T20:01:09.449Z,91.20
2019-04-28T20:03:38.091Z,91.10
2019-04-28T20:06:07.029Z,91.20
2019-04-28T20:08:35.635Z,91.70
2019-04-28T20:11:04.216Z,91.90
2019-04-28T20:13:32.887Z,92.40
2019-04-28T20:16:01.874Z,92.80
2019-04-28T20:18:30.479Z,92.80
2019-04-28T20:20:59.079Z,92.70
2019-04-28T20:23:27.875Z,93.10
2019-04-28T20:25:56.449Z,93.40
2019-04-28T20:28:24.991Z,93.00
2019-04-28T20:30:53.628Z,92.20
2019-04-28T20:33:22.168Z,92.20
2019-04-28T20:35:52.543Z,92.50
2019-04-28T20:38:22.736Z,92.50
2019-04-28T20:41:08.068Z,92.70
2019-04-28T20:43:36.612Z,92.90
2019-04-28T20:46:05.565Z,92.80
2019-04-28T20:48:34.131Z,92.40
2019-04-28T20:51:02.680Z,92.20
2019-04-28T20:53:31.248Z,92.10
2019-04-28T20:55:59.796Z,91.70
2019-04-28T20:58:28.354Z,91.40
2019-04-28T21:00:56.975Z,91.10
2019-04-28T21:03:25.537Z,91.50
2019-04-28T21:05:54.151Z,91.40
2019-04-28T21:08:22.712Z,91.20
2019-04-28T21:10:51.363Z,91.00
2019-04-28T21:13:20.050Z,92.20
2019-04-28T21:15:48.596Z,92.70
2019-04-28T21:18:17.136Z,92.30
2019-04-28T21:20:45.806Z,91.90
2019-04-28T21:23:14.395Z,92.50
2019-04-28T21:25:42.921Z,93.20
2019-04-28T21:28:11.543Z,93.20
2019-04-28T21:30:40.104Z,93.50
2019-04-28T21:33:08.715Z,93.50
2019-04-28T21:35:37.368Z,93.30
2019-04-28T21:38:05.994Z,93.80
2019-04-28T21:40:34.537Z,94.00
2019-04-28T21:43:07.520Z,94.00
2019-04-28T21:45:43.880Z,93.20
2019-04-28T21:48:14.167Z,93.90
2019-04-28T21:50:42.703Z,94.20
2019-04-28T21:53:11.266Z,94.20
2019-04-28T21:55:39.816Z,94.00
2019-04-28T21:58:10.233Z,94.20
2019-04-28T22:00:48.989Z,95.40
2019-04-28T22:03:17.551Z,96.40
2019-04-28T22:05:46.095Z,97.40
2019-04-28T22:08:14.644Z,98.30
2019-04-28T22:10:43.210Z,98.20
2019-04-28T22:13:12.112Z,98.10
2019-04-28T22:15:40.742Z,98.30
2019-04-28T22:18:09.296Z,98.20
2019-04-28T22:20:37.857Z,99.00
2019-04-28T22:23:19.952Z,99.60
2019-04-28T22:25:48.807Z,99.60
2019-04-28T22:28:17.351Z,99.80
2019-04-28T22:30:45.992Z,99.90
2019-04-28T22:33:14.541Z,99.90
2019-04-28T22:35:43.080Z,99.90
2019-04-28T22:38:11.658Z,99.90
2019-04-28T22:40:40.303Z,99.90
2019-04-28T22:43:08.986Z,99.90
2019-04-28T22:45:37.528Z,99.90
2019-04-28T22:48:07.923Z,99.90
2019-04-28T22:50:42.562Z,99.90
2019-04-28T22:53:11.886Z,99.90
2019-04-28T22:55:42.063Z,99.90
2019-04-28T22:58:12.256Z,99.40
2019-04-28T23:00:42.527Z,99.90
2019-04-28T23:03:27.983Z,99.90
2019-04-28T23:05:56.592Z,98.90
2019-04-28T23:08:25.284Z,99.70
2019-04-28T23:10:53.848Z,99.90
2019-04-28T23:13:22.764Z,99.90
2019-04-28T23:15:51.395Z,99.90
2019-04-28T23:18:20.016Z,99.90
2019-04-28T23:20:50.287Z,99.90
2019-04-28T23:23:18.835Z,99.90
2019-04-28T23:25:47.400Z,99.90
2019-04-28T23:28:15.938Z,99.90
2019-04-28T23:30:46.208Z,99.90
2019-04-28T23:33:14.750Z,99.90
2019-04-28T23:35:43.475Z,99.90
2019-04-28T23:38:12.037Z,99.90
2019-04-28T23:40:42.221Z,99.90
2019-04-28T23:43:15.367Z,99.90
2019-04-28T23:45:43.912Z,99.90
2019-04-28T23:48:12.509Z,99.90
2019-04-28T23:51:00.518Z,99.90
2019-04-28T23:53:46.847Z,99.90
2019-04-28T23:56:15.471Z,99.90
2019-04-28T23:58:44.044Z,99.90
